Time;durP1;ratioP1;P1;durP2;ratioP2;P2;SDS_P1;SDS_P2;PMS_P1;PMS_P2;Temp;Humidity;BMP_temperature;BMP_pressure;BME280_temperature;BME280_humidity;BME280_pressure;Samples;Min_cycle;Max_cycle;Signal;HPM_P1;HPM_P2
2021/05/04 00:01:05;;;;;;;3.83;0.82;;;11.80;99.90;;;;;;5025089;28;20655;-78
2021/05/04 00:03:31;;;;;;;3.42;0.55;;;11.80;99.90;;;;;;5044511;28;20021;-78
2021/05/04 00:05:56;;;;;;;2.05;0.70;;;11.90;99.90;;;;;;5021011;28;20033;-78
2021/05/04 00:08:22;;;;;;;5.10;0.70;;;12.00;99.90;;;;;;5022824;28;20026;-78
2021/05/04 00:10:48;;;;;;;2.70;0.60;;;12.00;99.90;;;;;;5025541;28;20068;-78
2021/05/04 00:13:14;;;;;;;4.38;0.60;;;11.90;99.90;;;;;;5045331;28;20030;-78
2021/05/04 00:15:39;;;;;;;1.95;0.50;;;12.00;99.90;;;;;;5027592;28;20034;-78
2021/05/04 00:18:05;;;;;;;1.65;0.50;;;11.90;99.90;;;;;;5047883;28;20090;-78
2021/05/04 00:20:31;;;;;;;2.92;0.50;;;11.90;99.90;;;;;;5030136;28;20100;-78
2021/05/04 00:22:56;;;;;;;2.75;0.50;;;11.90;99.90;;;;;;5047664;28;20026;-78
2021/05/04 00:25:22;;;;;;;3.20;0.60;;;12.00;99.90;;;;;;5029325;28;20021;-78
2021/05/04 00:27:47;;;;;;;1.42;0.50;;;11.90;99.90;;;;;;5047594;28;20055;-78
2021/05/04 00:30:13;;;;;;;3.03;0.93;;;11.90;99.90;;;;;;5047673;28;20037;-77
2021/05/04 00:32:39;;;;;;;2.28;0.50;;;11.90;99.90;;;;;;5029972;28;20424;-78
2021/05/04 00:35:05;;;;;;;3.05;0.50;;;11.90;99.90;;;;;;5030006;28;20029;-80
2021/05/04 00:37:30;;;;;;;6.22;0.60;;;11.90;99.90;;;;;;5025779;28;20028;-79
2021/05/04 00:39:56;;;;;;;1.20;0.63;;;11.70;99.90;;;;;;5028005;28;20482;-78
2021/05/04 00:42:24;;;;;;;3.42;0.88;;;11.60;99.90;;;;;;5045631;28;20022;-79
2021/05/04 00:44:51;;;;;;;2.78;0.55;;;11.50;99.90;;;;;;5042037;28;20043;-78
2021/05/04 00:47:17;;;;;;;2.15;0.70;;;11.40;99.90;;;;;;5009106;28;20021;-78
2021/05/04 00:49:42;;;;;;;2.42;0.52;;;11.40;99.90;;;;;;5025368;28;20628;-79
2021/05/04 00:52:08;;;;;;;2.78;0.50;;;11.20;99.90;;;;;;5010319;28;20033;-78
2021/05/04 00:54:34;;;;;;;1.20;0.50;;;11.00;99.90;;;;;;5047487;28;20029;-79
2021/05/04 00:57:00;;;;;;;3.75;0.50;;;10.90;99.90;;;;;;5025317;28;20030;-78
2021/05/04 00:59:27;;;;;;;4.00;0.60;;;10.90;99.90;;;;;;5025391;28;20279;-79
2021/05/04 01:01:53;;;;;;;3.85;0.50;;;10.80;99.90;;;;;;5041505;28;20037;-79
2021/05/04 01:04:20;;;;;;;1.80;0.50;;;10.70;99.90;;;;;;5028375;28;20021;-78
2021/05/04 01:06:46;;;;;;;3.63;0.70;;;10.60;99.90;;;;;;5029058;28;20361;-78
2021/05/04 01:09:14;;;;;;;3.80;0.60;;;10.60;99.90;;;;;;5043835;28;20026;-78
2021/05/04 01:11:41;;;;;;;1.38;0.47;;;10.40;99.90;;;;;;5012790;28;20042;-79
2021/05/04 01:14:08;;;;;;;2.50;0.60;;;10.30;99.90;;;;;;5026252;28;20059;-78
2021/05/04 01:16:33;;;;;;;3.38;0.50;;;10.20;99.90;;;;;;5046685;28;20030;-79
2021/05/04 01:18:59;;;;;;;3.35;0.50;;;10.10;99.90;;;;;;5027015;28;20028;-78
2021/05/04 01:21:25;;;;;;;2.92;0.47;;;10.00;99.90;;;;;;5045799;28;20037;-79
2021/05/04 01:23:50;;;;;;;2.92;0.50;;;9.90;99.90;;;;;;5028119;28;20057;-78
2021/05/04 01:26:16;;;;;;;1.98;0.52;;;9.80;99.90;;;;;;5028791;28;20037;-78
2021/05/04 01:28:41;;;;;;;3.05;0.70;;;9.60;99.90;;;;;;5025861;28;20025;-78
2021/05/04 01:31:07;;;;;;;7.63;0.60;;;9.50;99.90;;;;;;5012404;28;20044;-78
2021/05/04 01:33:33;;;;;;;5.15;0.60;;;9.50;99.90;;;;;;5043676;28;20026;-78
2021/05/04 01:36:00;;;;;;;5.07;0.70;;;9.50;99.90;;;;;;5026357;28;20037;-79
2021/05/04 01:38:26;;;;;;;4.63;0.50;;;9.40;99.90;;;;;;5025289;28;20048;-78
2021/05/04 01:40:51;;;;;;;1.48;0.52;;;9.30;99.90;;;;;;5041127;28;20049;-78
2021/05/04 01:43:17;;;;;;;4.28;0.70;;;9.20;99.90;;;;;;5042962;28;20060;-79
2021/05/04 01:45:43;;;;;;;3.97;0.60;;;9.20;99.90;;;;;;5007350;28;20028;-78
2021/05/04 01:48:08;;;;;;;1.50;0.50;;;9.10;99.90;;;;;;5024779;28;20033;-79
2021/05/04 01:50:34;;;;;;;2.22;0.85;;;9.10;99.90;;;;;;5009206;28;20033;-79
2021/05/04 01:52:59;;;;;;;1.40;0.57;;;9.00;99.90;;;;;;5043469;28;20029;-79
2021/05/04 01:55:26;;;;;;;2.13;0.60;;;9.10;99.90;;;;;;5026471;28;20029;-79
2021/05/04 01:57:52;;;;;;;3.45;0.60;;;9.00;99.90;;;;;;5024550;28;20037;-79
2021/05/04 02:00:18;;;;;;;2.28;0.80;;;9.00;99.90;;;;;;5023676;28;20040;-79
2021/05/04 02:02:43;;;;;;;4.10;0.70;;;8.90;99.90;;;;;;5027007;28;20068;-79
2021/05/04 02:05:10;;;;;;;3.95;0.60;;;8.90;99.90;;;;;;5045882;28;20033;-80
2021/05/04 02:07:35;;;;;;;4.68;0.60;;;8.90;99.90;;;;;;5008660;28;20158;-79
2021/05/04 02:10:01;;;;;;;4.07;0.68;;;8.90;99.90;;;;;;5023155;28;20097;-79
2021/05/04 02:12:27;;;;;;;1.50;0.68;;;8.90;99.90;;;;;;5024281;28;20020;-79
2021/05/04 02:14:54;;;;;;;2.22;0.65;;;8.80;99.90;;;;;;5041333;28;20037;-79
2021/05/04 02:17:20;;;;;;;8.55;0.75;;;8.80;99.90;;;;;;5043085;28;20028;-79
2021/05/04 02:19:45;;;;;;;3.38;0.60;;;8.80;99.90;;;;;;5043533;28;20060;-79
2021/05/04 02:22:11;;;;;;;3.10;1.00;;;8.70;99.90;;;;;;5024287;28;20021;-79
2021/05/04 02:24:37;;;;;;;2.58;0.80;;;8.60;99.90;;;;;;5027234;28;20072;-79
2021/05/04 02:27:03;;;;;;;3.75;0.65;;;8.60;99.90;;;;;;5042527;28;20021;-79
2021/05/04 02:29:28;;;;;;;4.38;1.30;;;8.60;99.90;;;;;;5027561;28;20050;-80
2021/05/04 02:31:54;;;;;;;2.97;0.93;;;8.50;99.90;;;;;;5024954;28;20052;-80
2021/05/04 02:34:20;;;;;;;1.83;0.70;;;8.50;99.90;;;;;;5043486;28;20021;-80
2021/05/04 02:36:45;;;;;;;2.88;0.80;;;8.50;99.90;;;;;;5026830;28;20123;-79
2021/05/04 02:39:11;;;;;;;2.67;0.82;;;8.50;99.90;;;;;;5019361;28;20030;-79
2021/05/04 02:41:37;;;;;;;6.05;0.80;;;8.50;99.90;;;;;;5024458;28;20022;-79
2021/05/04 02:44:03;;;;;;;1.90;0.70;;;8.50;99.90;;;;;;5008514;28;20052;-79
2021/05/04 02:46:29;;;;;;;3.83;1.27;;;8.40;99.90;;;;;;5027283;28;20049;-80
2021/05/04 02:48:56;;;;;;;2.58;0.80;;;8.40;99.90;;;;;;5024976;28;20033;-79
2021/05/04 02:51:22;;;;;;;2.75;0.82;;;8.40;99.90;;;;;;5043609;28;20029;-80
2021/05/04 02:53:48;;;;;;;3.45;1.10;;;8.40;99.90;;;;;;5005702;28;20124;-78
2021/05/04 02:56:14;;;;;;;5.93;1.15;;;8.40;99.90;;;;;;5039237;28;20029;-79
2021/05/04 02:58:40;;;;;;;2.97;0.90;;;8.40;99.90;;;;;;5005400;28;21070;-79
2021/05/04 03:01:06;;;;;;;3.92;0.93;;;8.40;99.90;;;;;;5019044;28;20034;-79
2021/05/04 03:03:34;;;;;;;4.72;0.93;;;8.50;99.90;;;;;;5055186;28;20041;-79
2021/05/04 03:06:00;;;;;;;3.22;0.82;;;8.40;99.90;;;;;;5007863;28;20101;-79
2021/05/04 03:08:26;;;;;;;2.58;1.00;;;8.40;99.90;;;;;;5002634;28;20031;-78
2021/05/04 03:10:52;;;;;;;3.53;0.90;;;8.40;99.90;;;;;;5007839;28;20041;-78
2021/05/04 03:13:29;;;;;;;3.83;0.75;;;8.30;99.90;;;;;;5005200;28;20029;-78
2021/05/04 03:15:56;;;;;;;2.20;1.00;;;8.40;99.90;;;;;;5024121;28;20033;-79
2021/05/04 03:18:21;;;;;;;2.60;0.70;;;8.40;99.90;;;;;;5002018;28;20034;-79
2021/05/04 03:20:52;;;;;;;5.10;0.70;;;8.30;99.90;;;;;;5041632;28;20045;-79
2021/05/04 03:23:19;;;;;;;3.75;0.80;;;8.40;99.90;;;;;;5005439;28;20045;-78
2021/05/04 03:25:45;;;;;;;2.03;0.90;;;8.40;99.90;;;;;;5005696;28;20377;-79
2021/05/04 03:28:12;;;;;;;3.40;0.55;;;8.40;99.90;;;;;;5021522;28;20041;-79
2021/05/04 03:30:38;;;;;;;2.97;0.70;;;8.40;99.90;;;;;;5023954;28;20104;-79
2021/05/04 03:33:04;;;;;;;3.38;0.80;;;8.40;99.90;;;;;;5021693;28;20029;-79
2021/05/04 03:35:30;;;;;;;1.77;0.63;;;8.50;99.90;;;;;;5007635;28;20021;-79
2021/05/04 03:37:56;;;;;;;3.05;0.90;;;8.60;99.90;;;;;;5021439;28;20033;-78
2021/05/04 03:40:22;;;;;;;2.22;1.35;;;8.50;99.90;;;;;;5010300;28;20056;-80
2021/05/04 03:42:48;;;;;;;2.13;1.00;;;8.50;99.90;;;;;;5004624;28;20038;-78
2021/05/04 03:45:14;;;;;;;6.22;1.10;;;8.40;99.90;;;;;;5044869;28;20029;-78
2021/05/04 03:47:41;;;;;;;2.53;0.77;;;8.50;99.90;;;;;;5025173;28;20026;-79
2021/05/04 03:50:10;;;;;;;3.22;1.10;;;8.50;99.90;;;;;;5027962;28;20049;-78
2021/05/04 03:52:36;;;;;;;3.30;1.33;;;8.40;99.90;;;;;;5024692;28;20034;-80
2021/05/04 03:55:03;;;;;;;2.00;0.90;;;8.40;99.90;;;;;;5011656;28;20053;-78
2021/05/04 03:57:29;;;;;;;2.28;1.13;;;8.40;99.90;;;;;;5041372;28;20089;-78
2021/05/04 03:59:55;;;;;;;2.85;1.20;;;8.50;99.90;;;;;;5045775;28;20040;-80
2021/05/04 04:02:21;;;;;;;2.10;1.05;;;8.40;99.90;;;;;;5024818;28;20025;-78
2021/05/04 04:04:46;;;;;;;2.85;1.40;;;8.30;99.90;;;;;;5027920;28;20100;-79
2021/05/04 04:07:12;;;;;;;2.63;1.00;;;8.20;99.90;;;;;;5021759;28;20039;-79
2021/05/04 04:09:37;;;;;;;3.58;0.70;;;8.20;99.90;;;;;;5027425;28;20079;-79
2021/05/04 04:12:03;;;;;;;2.35;0.75;;;8.20;99.90;;;;;;5042377;28;20030;-79
2021/05/04 04:14:29;;;;;;;2.10;0.80;;;8.30;99.90;;;;;;5027412;28;20025;-79
2021/05/04 04:16:55;;;;;;;1.98;0.57;;;8.20;99.90;;;;;;5024386;28;20034;-79
2021/05/04 04:19:20;;;;;;;6.53;1.05;;;8.20;99.90;;;;;;5021136;28;20026;-79
2021/05/04 04:21:48;;;;;;;4.70;1.13;;;8.20;99.90;;;;;;5009770;28;20046;-79
2021/05/04 04:24:14;;;;;;;2.15;0.93;;;8.10;99.90;;;;;;5024886;28;20021;-79
2021/05/04 04:26:40;;;;;;;2.50;0.98;;;8.20;99.90;;;;;;5029438;28;20021;-79
2021/05/04 04:29:05;;;;;;;3.38;1.25;;;8.20;99.90;;;;;;5012369;28;20037;-79
2021/05/04 04:31:31;;;;;;;2.90;1.15;;;8.20;99.90;;;;;;5029585;28;20048;-79
2021/05/04 04:33:57;;;;;;;4.00;0.70;;;8.20;99.90;;;;;;5009051;28;20540;-79
2021/05/04 04:36:22;;;;;;;4.20;1.02;;;8.20;99.90;;;;;;5024274;28;20118;-79
2021/05/04 04:38:48;;;;;;;2.30;1.00;;;8.10;99.90;;;;;;5007732;28;20060;-78
2021/05/04 04:41:13;;;;;;;2.50;1.08;;;8.10;99.90;;;;;;5039877;28;20022;-79
2021/05/04 04:43:39;;;;;;;2.78;0.98;;;8.10;99.90;;;;;;5030099;28;20029;-79
2021/05/04 04:46:05;;;;;;;2.95;0.93;;;8.00;99.90;;;;;;5010619;28;20033;-79
2021/05/04 04:48:30;;;;;;;3.15;0.88;;;8.10;99.90;;;;;;5026718;28;20056;-79
2021/05/04 04:50:56;;;;;;;2.58;0.90;;;8.10;99.90;;;;;;5044543;28;20049;-79
2021/05/04 04:53:22;;;;;;;4.90;0.90;;;8.10;99.90;;;;;;5029747;28;20029;-79
2021/05/04 04:55:47;;;;;;;2.22;1.20;;;8.00;99.90;;;;;;5026484;28;20030;-79
2021/05/04 04:58:13;;;;;;;2.30;0.70;;;8.00;99.90;;;;;;5009853;28;20021;-79
2021/05/04 05:00:41;;;;;;;2.42;0.90;;;8.00;99.90;;;;;;5043653;28;20030;-79
2021/05/04 05:03:06;;;;;;;4.20;1.20;;;8.10;99.90;;;;;;5009633;28;20030;-78
2021/05/04 05:05:32;;;;;;;2.03;0.80;;;8.10;99.90;;;;;;5003092;28;20026;-79
2021/05/04 05:07:57;;;;;;;5.93;0.82;;;8.10;99.90;;;;;;5025007;28;20077;-78
2021/05/04 05:10:23;;;;;;;1.80;0.70;;;8.10;99.90;;;;;;5025666;28;20033;-79
2021/05/04 05:12:49;;;;;;;3.10;0.65;;;8.10;99.90;;;;;;5043171;28;20037;-80
2021/05/04 05:15:15;;;;;;;3.15;0.95;;;8.10;99.90;;;;;;5025640;28;20089;-79
2021/05/04 05:17:41;;;;;;;2.45;1.33;;;8.20;99.90;;;;;;5041784;28;20028;-80
2021/05/04 05:20:07;;;;;;;3.40;0.80;;;8.20;99.90;;;;;;5025353;28;20050;-80
2021/05/04 05:22:33;;;;;;;5.15;1.10;;;8.30;99.90;;;;;;5039158;28;20030;-81
2021/05/04 05:24:59;;;;;;;1.88;0.90;;;8.30;99.90;;;;;;5004236;28;20064;-80
2021/05/04 05:27:27;;;;;;;2.65;1.10;;;8.30;99.90;;;;;;5022390;28;20104;-80
2021/05/04 05:29:53;;;;;;;2.67;0.68;;;8.30;99.90;;;;;;5041488;28;20464;-80
2021/05/04 05:32:18;;;;;;;3.80;1.00;;;8.40;99.90;;;;;;5027796;28;20105;-79
2021/05/04 05:34:45;;;;;;;8.48;2.00;;;8.40;99.90;;;;;;5022416;28;20033;-80
2021/05/04 05:37:11;;;;;;;4.13;1.20;;;8.40;99.90;;;;;;4997983;28;20044;-81
2021/05/04 05:39:41;;;;;;;7.10;1.63;;;8.40;99.90;;;;;;4997605;28;20053;-80
2021/05/04 05:42:07;;;;;;;2.08;1.10;;;8.50;99.90;;;;;;5021023;28;20021;-80
2021/05/04 05:44:33;;;;;;;3.28;0.80;;;8.50;99.90;;;;;;5017692;28;20028;-81
2021/05/04 05:46:58;;;;;;;3.35;1.05;;;8.60;99.90;;;;;;5017842;28;20029;-80
2021/05/04 05:49:24;;;;;;;2.40;0.90;;;8.60;99.90;;;;;;5016151;28;20153;-80
2021/05/04 05:51:50;;;;;;;3.20;1.23;;;8.60;99.90;;;;;;5018388;28;20125;-80
2021/05/04 05:54:15;;;;;;;2.47;1.20;;;8.70;99.90;;;;;;4998761;28;20029;-80
2021/05/04 05:56:41;;;;;;;2.08;0.60;;;8.60;99.90;;;;;;5019422;28;20029;-80
2021/05/04 05:59:06;;;;;;;3.47;1.10;;;8.60;99.90;;;;;;5016079;28;20041;-80
2021/05/04 06:01:32;;;;;;;5.55;1.10;;;8.60;99.90;;;;;;5039766;28;20085;-81
2021/05/04 06:03:58;;;;;;;2.78;1.10;;;8.60;99.90;;;;;;5043197;28;20112;-80
2021/05/04 06:06:23;;;;;;;3.72;1.27;;;8.60;99.90;;;;;;5019675;28;20056;-80
2021/05/04 06:08:50;;;;;;;2.78;0.95;;;8.70;99.90;;;;;;5021801;28;20040;-80
2021/05/04 06:11:16;;;;;;;1.90;0.88;;;8.70;99.90;;;;;;5021811;28;20033;-80
2021/05/04 06:13:43;;;;;;;2.88;0.85;;;8.70;99.90;;;;;;5004358;28;20049;-80
2021/05/04 06:16:09;;;;;;;1.80;0.73;;;8.80;99.90;;;;;;5040652;28;20072;-81
2021/05/04 06:18:34;;;;;;;2.80;1.13;;;8.80;99.90;;;;;;5024526;28;20026;-81
2021/05/04 06:21:00;;;;;;;3.83;1.08;;;8.90;99.90;;;;;;5007720;28;20053;-81
2021/05/04 06:23:26;;;;;;;3.53;0.90;;;8.80;99.90;;;;;;5024999;28;20037;-80
2021/05/04 06:25:51;;;;;;;3.03;1.08;;;8.80;99.90;;;;;;5024294;28;20045;-79
2021/05/04 06:28:17;;;;;;;2.75;0.88;;;8.80;99.90;;;;;;5020754;28;20068;-80
2021/05/04 06:30:43;;;;;;;3.05;1.02;;;8.80;99.90;;;;;;5007787;28;20033;-81
2021/05/04 06:33:11;;;;;;;2.72;0.70;;;8.80;99.90;;;;;;5004061;28;20031;-79
2021/05/04 06:35:41;;;;;;;2.03;0.90;;;8.90;99.90;;;;;;5024017;28;20029;-79
2021/05/04 06:38:07;;;;;;;1.87;0.80;;;8.90;99.90;;;;;;5021350;28;20029;-80
2021/05/04 06:40:34;;;;;;;2.72;0.60;;;8.90;99.90;;;;;;5007673;28;20372;-80
2021/05/04 06:43:01;;;;;;;4.15;0.80;;;9.00;99.90;;;;;;5024139;28;20113;-81
2021/05/04 06:45:27;;;;;;;2.03;0.60;;;9.10;99.90;;;;;;5007584;28;20055;-80
2021/05/04 06:47:52;;;;;;;2.10;0.70;;;9.00;99.90;;;;;;5023957;28;20429;-80
2021/05/04 06:50:18;;;;;;;5.40;0.60;;;9.00;99.90;;;;;;5041625;28;20136;-81
2021/05/04 06:52:44;;;;;;;2.53;0.80;;;9.00;99.90;;;;;;5044246;28;20110;-80
2021/05/04 06:55:10;;;;;;;2.38;0.57;;;9.00;99.90;;;;;;5010538;28;20025;-80
2021/05/04 06:57:36;;;;;;;3.05;0.60;;;9.00;99.90;;;;;;5026545;28;20030;-79
2021/05/04 07:00:06;;;;;;;2.60;0.80;;;9.00;99.90;;;;;;5009855;28;20029;-80
2021/05/04 07:02:32;;;;;;;4.10;0.88;;;9.10;99.90;;;;;;5023738;28;20026;-82
2021/05/04 07:04:58;;;;;;;1.95;0.60;;;9.10;99.90;;;;;;5041541;28;20025;-81
2021/05/04 07:07:23;;;;;;;4.10;0.60;;;9.10;99.90;;;;;;5007003;28;20037;-81
2021/05/04 07:09:49;;;;;;;3.75;0.55;;;9.20;99.90;;;;;;5009258;28;20037;-80
2021/05/04 07:12:14;;;;;;;2.78;0.82;;;9.40;99.90;;;;;;5009674;28;20029;-82
2021/05/04 07:14:40;;;;;;;3.88;0.60;;;9.60;99.90;;;;;;5024012;28;20116;-82
2021/05/04 07:17:06;;;;;;;3.92;0.50;;;9.60;99.90;;;;;;5006429;28;20052;-81
2021/05/04 07:19:33;;;;;;;4.93;0.50;;;9.50;99.90;;;;;;5023522;28;20093;-81
2021/05/04 07:21:59;;;;;;;2.40;0.30;;;9.40;99.90;;;;;;5025633;28;20052;-80
2021/05/04 07:24:24;;;;;;;2.80;0.30;;;9.30;99.90;;;;;;5024968;28;20469;-81
2021/05/04 07:26:51;;;;;;;4.13;0.40;;;9.20;99.90;;;;;;5009752;28;20029;-79
2021/05/04 07:29:16;;;;;;;2.35;0.20;;;9.20;99.90;;;;;;5009613;28;20045;-80
2021/05/04 07:31:43;;;;;;;3.80;0.32;;;9.40;99.90;;;;;;5023219;28;20077;-81
2021/05/04 07:34:09;;;;;;;2.65;0.40;;;9.40;99.90;;;;;;5026325;28;20040;-81
2021/05/04 07:36:35;;;;;;;4.55;0.40;;;9.30;99.90;;;;;;5006364;28;20025;-82
2021/05/04 07:39:01;;;;;;;4.60;0.55;;;9.40;99.90;;;;;;5038957;28;20034;-81
2021/05/04 07:41:29;;;;;;;3.80;1.08;;;9.50;99.90;;;;;;5023519;28;20152;-81
2021/05/04 07:43:55;;;;;;;4.97;0.60;;;9.50;99.90;;;;;;5025697;28;20116;-81
2021/05/04 07:46:20;;;;;;;4.13;0.90;;;9.40;99.90;;;;;;5020438;28;20093;-81
2021/05/04 07:48:46;;;;;;;4.07;0.80;;;9.40;99.90;;;;;;5025406;28;20029;-81
2021/05/04 07:51:12;;;;;;;2.20;0.47;;;9.30;99.90;;;;;;5020993;28;20159;-81
2021/05/04 07:53:37;;;;;;;5.88;0.57;;;9.40;99.90;;;;;;5026103;28;20021;-81
2021/05/04 07:56:03;;;;;;;4.78;0.65;;;9.30;99.90;;;;;;5023240;28;20044;-80
2021/05/04 07:58:30;;;;;;;4.38;0.50;;;9.20;99.90;;;;;;5009424;28;20028;-81
2021/05/04 08:00:56;;;;;;;4.35;0.50;;;9.20;99.90;;;;;;5024850;28;20034;-80
2021/05/04 08:03:21;;;;;;;5.43;0.50;;;9.10;99.90;;;;;;5024386;28;20064;-80
2021/05/04 08:06:07;;;;;;;2.17;0.40;;;9.00;99.90;;;;;;5006566;28;20495;-80
2021/05/04 08:08:33;;;;;;;2.35;0.30;;;9.10;99.90;;;;;;4925468;29;20054;-80
2021/05/04 08:10:59;;;;;;;3.92;0.75;;;9.20;99.90;;;;;;4940938;29;20052;-81
2021/05/04 08:13:24;;;;;;;3.47;0.57;;;9.20;99.90;;;;;;4928227;29;20036;-80
2021/05/04 08:15:52;;;;;;;2.63;0.40;;;9.40;99.90;;;;;;4943613;29;20132;-80
2021/05/04 08:18:18;;;;;;;3.47;0.43;;;9.50;99.90;;;;;;4925717;29;20027;-80
2021/05/04 08:20:52;;;;;;;4.22;0.70;;;9.50;99.90;;;;;;4927632;29;20074;-81
2021/05/04 08:23:18;;;;;;;5.25;0.50;;;9.60;99.90;;;;;;4941309;29;20028;-80
2021/05/04 08:25:44;;;;;;;3.38;0.70;;;9.80;99.90;;;;;;4937064;29;20039;-80
2021/05/04 08:28:10;;;;;;;6.28;1.85;;;9.90;99.90;;;;;;4925376;29;20020;-81
2021/05/04 08:30:36;;;;;;;4.30;0.80;;;10.10;99.90;;;;;;4926769;29;20139;-81
2021/05/04 08:33:03;;;;;;;4.03;0.60;;;10.40;99.90;;;;;;4939276;29;20043;-80
2021/05/04 08:35:29;;;;;;;7.40;1.00;;;10.60;99.90;;;;;;4944583;29;20040;-80
2021/05/04 08:37:56;;;;;;;7.10;0.70;;;10.60;99.90;;;;;;4930918;29;20036;-80
2021/05/04 08:40:22;;;;;;;4.82;0.68;;;10.70;99.90;;;;;;4931176;29;20032;-80
2021/05/04 08:42:48;;;;;;;7.03;1.08;;;10.90;99.90;;;;;;4931145;29;20070;-80
2021/05/04 08:45:15;;;;;;;5.95;1.60;;;11.00;99.90;;;;;;4933398;28;20177;-79
2021/05/04 08:47:47;;;;;;;6.32;1.10;;;11.00;99.90;;;;;;5028819;28;20036;-80
2021/05/04 08:50:18;;;;;;;5.68;0.70;;;11.10;99.90;;;;;;5028880;28;20117;-80
2021/05/04 08:52:44;;;;;;;6.05;0.90;;;11.10;99.90;;;;;;5012537;28;20021;-80
2021/05/04 08:55:11;;;;;;;4.75;0.70;;;11.00;99.90;;;;;;5029169;28;20045;-80
2021/05/04 08:57:38;;;;;;;8.10;0.60;;;10.80;99.90;;;;;;5009660;28;20018;-80
2021/05/04 09:00:08;;;;;;;6.00;0.90;;;10.70;99.90;;;;;;5026330;28;20552;-80
2021/05/04 09:02:36;;;;;;;5.88;0.60;;;10.70;99.90;;;;;;5045236;28;20033;-79
2021/05/04 09:05:15;;;;;;;6.25;0.88;;;10.70;99.90;;;;;;5009847;28;20037;-80
2021/05/04 09:07:41;;;;;;;5.32;0.60;;;10.60;99.90;;;;;;4993543;28;20089;-80
2021/05/04 09:10:19;;;;;;;3.33;0.50;;;10.10;99.90;;;;;;5009256;28;20049;-80
2021/05/04 09:21:13;;;;;;;3.88;0.40;;;9.90;99.90;;;;;;5043574;28;20141;-80
2021/05/04 09:23:41;;;;;;;4.57;0.40;;;10.00;99.90;;;;;;5040071;28;20049;-80
2021/05/04 09:26:31;;;;;;;4.55;0.47;;;10.50;99.90;;;;;;5037185;28;20029;-80
2021/05/04 09:28:58;;;;;;;4.72;0.70;;;10.90;99.90;;;;;;5022076;28;20026;-80
2021/05/04 09:31:29;;;;;;;4.72;0.50;;;11.40;99.90;;;;;;5025995;28;20025;-80
2021/05/04 09:34:10;;;;;;;3.72;0.75;;;11.20;99.90;;;;;;5023669;28;20025;-80
2021/05/04 09:36:47;;;;;;;5.13;0.90;;;11.50;99.90;;;;;;5027933;28;20097;-80
2021/05/04 09:39:26;;;;;;;7.30;0.60;;;11.50;99.90;;;;;;5010624;28;20021;-81
2021/05/04 09:41:53;;;;;;;4.18;0.50;;;11.90;99.90;;;;;;5025426;28;20060;-82
2021/05/04 09:44:47;;;;;;;6.45;0.70;;;11.50;99.90;;;;;;5012899;28;20397;-81
2021/05/04 09:47:21;;;;;;;5.28;0.60;;;12.10;99.90;;;;;;5008990;28;20116;-80
2021/05/04 09:49:48;;;;;;;5.22;0.70;;;12.20;99.90;;;;;;4987705;28;20038;-81
2021/05/04 09:52:30;;;;;;;3.20;0.52;;;12.30;99.90;;;;;;5042361;28;20033;-80
2021/05/04 09:55:07;;;;;;;4.63;0.70;;;12.90;99.90;;;;;;5025303;28;20048;-82
2021/05/04 09:57:42;;;;;;;6.22;0.70;;;13.00;99.90;;;;;;5041506;28;20029;-80
2021/05/04 10:00:11;;;;;;;5.00;0.57;;;12.90;99.90;;;;;;5023691;28;20030;-81
2021/05/04 10:02:38;;;;;;;4.85;0.60;;;12.80;99.90;;;;;;5006464;28;20025;-80
2021/05/04 10:05:06;;;;;;;6.45;1.15;;;12.40;99.90;;;;;;5008005;28;20050;-79
2021/05/04 10:07:32;;;;;;;5.50;0.63;;;11.70;99.90;;;;;;5008109;28;20116;-80
2021/05/04 10:10:00;;;;;;;5.82;0.82;;;11.00;99.90;;;;;;5011011;28;20056;-81
2021/05/04 10:12:28;;;;;;;6.30;0.70;;;10.30;99.90;;;;;;5025020;28;20041;-80
2021/05/04 10:14:57;;;;;;;4.97;0.90;;;9.90;99.90;;;;;;5011245;28;20049;-80
2021/05/04 10:17:23;;;;;;;4.50;0.70;;;10.10;99.90;;;;;;5011063;28;20029;-81
2021/05/04 10:19:50;;;;;;;8.25;0.68;;;10.00;99.90;;;;;;5010555;28;20052;-80
2021/05/04 10:22:17;;;;;;;6.32;0.60;;;10.30;99.90;;;;;;5026772;28;20122;-80
2021/05/04 10:24:44;;;;;;;8.70;1.52;;;10.20;99.90;;;;;;5007884;28;20079;-81
2021/05/04 10:27:10;;;;;;;7.70;0.90;;;10.10;99.90;;;;;;5026024;28;20037;-80
2021/05/04 10:29:37;;;;;;;7.22;0.73;;;10.30;99.90;;;;;;5022266;28;20041;-80
2021/05/04 10:32:04;;;;;;;6.63;0.50;;;10.50;99.90;;;;;;5042821;28;20362;-80
2021/05/04 10:34:35;;;;;;;6.85;0.60;;;10.30;99.90;;;;;;5007823;28;20029;-80
2021/05/04 10:37:23;;;;;;;4.22;0.45;;;10.10;99.90;;;;;;5007750;28;20032;-80
2021/05/04 10:39:49;;;;;;;6.05;0.45;;;9.80;99.90;;;;;;5026533;28;20076;-80
2021/05/04 10:42:33;;;;;;;4.57;0.52;;;9.50;99.90;;;;;;5010695;28;20029;-81
2021/05/04 10:44:59;;;;;;;8.30;0.55;;;9.30;99.90;;;;;;5019432;28;20041;-80
2021/05/04 10:47:43;;;;;;;7.07;0.50;;;9.40;99.90;;;;;;5008474;28;20026;-81
2021/05/04 10:50:14;;;;;;;3.33;0.20;;;9.60;99.90;;;;;;5019009;28;20049;-80
2021/05/04 10:52:54;;;;;;;4.68;0.20;;;9.60;99.90;;;;;;5026834;28;20026;-80
2021/05/04 10:55:22;;;;;;;2.88;0.20;;;9.60;99.90;;;;;;5024644;28;20029;-80
2021/05/04 10:58:00;;;;;;;4.93;0.30;;;10.10;99.90;;;;;;5044335;28;20029;-81
2021/05/04 11:00:48;;;;;;;4.65;0.30;;;10.60;99.90;;;;;;5007281;28;20082;-79
2021/05/04 11:03:29;;;;;;;3.80;0.20;;;10.60;99.90;;;;;;5007427;28;20089;-79
2021/05/04 11:06:24;;;;;;;2.85;0.30;;;11.20;99.90;;;;;;5019312;28;20025;-80
2021/05/04 11:08:50;;;;;;;2.53;0.28;;;11.20;99.90;;;;;;4895647;29;20041;-80
2021/05/04 11:11:41;;;;;;;1.90;0.20;;;10.90;99.90;;;;;;4928636;29;20147;-80
2021/05/04 11:14:16;;;;;;;3.67;0.25;;;10.50;99.90;;;;;;4942151;29;20035;-80
2021/05/04 11:16:47;;;;;;;6.10;0.30;;;10.90;99.90;;;;;;4919855;29;20572;-81
2021/05/04 11:19:34;;;;;;;3.60;0.22;;;11.10;99.90;;;;;;4944288;29;20534;-80
2021/05/04 11:21:59;;;;;;;2.47;0.20;;;11.30;99.90;;;;;;4928237;29;20127;-79
2021/05/04 11:24:32;;;;;;;1.73;0.20;;;11.10;99.90;;;;;;4940716;29;20039;-81
2021/05/04 11:27:16;;;;;;;3.10;0.22;;;10.90;99.90;;;;;;4895466;29;20486;-79
2021/05/04 11:29:42;;;;;;;2.25;0.20;;;10.60;99.90;;;;;;4936176;29;20238;-79
2021/05/04 11:32:37;;;;;;;2.03;0.20;;;10.60;99.90;;;;;;4928308;29;20039;-80
2021/05/04 11:35:05;;;;;;;0.98;0.20;;;10.00;99.90;;;;;;4910365;29;20119;-80
2021/05/04 11:37:35;;;;;;;3.92;0.30;;;9.10;99.90;;;;;;4927337;29;20020;-80
2021/05/04 11:40:18;;;;;;;1.70;0.20;;;8.90;99.90;;;;;;4924358;29;20567;-79
2021/05/04 11:42:52;;;;;;;2.88;0.40;;;9.00;99.90;;;;;;4925887;29;20081;-80
2021/05/04 11:45:34;;;;;;;2.78;0.30;;;8.90;99.90;;;;;;4967905;28;20038;-79
2021/05/04 11:48:02;;;;;;;2.88;0.38;;;9.00;99.90;;;;;;5034883;28;20040;-80
2021/05/04 11:50:33;;;;;;;3.22;0.40;;;9.30;99.90;;;;;;5040979;28;20079;-79
2021/05/04 11:53:01;;;;;;;2.08;0.40;;;10.20;99.90;;;;;;5042359;28;20060;-80
2021/05/04 11:55:32;;;;;;;3.47;0.40;;;10.70;99.90;;;;;;5022029;28;20091;-80
2021/05/04 11:58:02;;;;;;;2.95;0.40;;;11.30;99.90;;;;;;5024763;28;20030;-80
2021/05/04 12:00:30;;;;;;;2.17;0.30;;;11.80;99.90;;;;;;5023428;28;20025;-80
2021/05/04 12:03:07;;;;;;;3.15;0.30;;;12.00;99.90;;;;;;5009686;28;20029;-81
2021/05/04 12:05:34;;;;;;;2.85;0.40;;;11.50;99.90;;;;;;5022119;28;20036;-81
2021/05/04 12:08:00;;;;;;;1.50;0.40;;;10.80;99.90;;;;;;5026748;28;20059;-80
2021/05/04 12:10:27;;;;;;;3.03;0.40;;;10.50;99.90;;;;;;5037090;28;20037;-79
2021/05/04 12:13:03;;;;;;;2.92;0.30;;;10.50;99.90;;;;;;5029127;28;20026;-80
2021/05/04 12:15:37;;;;;;;3.20;0.30;;;10.30;99.90;;;;;;5013233;28;20091;-81
2021/05/04 12:18:09;;;;;;;1.65;0.30;;;10.00;99.90;;;;;;5029261;28;20105;-80
2021/05/04 12:20:42;;;;;;;2.85;0.30;;;10.00;99.90;;;;;;5025098;28;20025;-81
2021/05/04 12:23:11;;;;;;;4.63;0.30;;;10.00;99.90;;;;;;5026370;28;20553;-80
2021/05/04 12:25:43;;;;;;;3.92;0.20;;;10.00;99.90;;;;;;5008333;28;20044;-79
2021/05/04 12:28:19;;;;;;;0.95;0.10;;;10.00;99.90;;;;;;5026395;28;20037;-79
2021/05/04 12:30:46;;;;;;;3.92;0.30;;;10.00;99.90;;;;;;5029131;28;20033;-80
2021/05/04 12:33:12;;;;;;;1.77;0.20;;;9.80;99.90;;;;;;5010805;28;20030;-79
2021/05/04 12:35:45;;;;;;;1.70;0.30;;;9.80;99.90;;;;;;5026195;28;20085;-80
2021/05/04 12:38:25;;;;;;;3.58;0.30;;;10.20;99.90;;;;;;5012604;28;20034;-80
2021/05/04 12:41:04;;;;;;;2.42;0.20;;;10.40;99.90;;;;;;5009874;28;20033;-79
2021/05/04 12:43:31;;;;;;;3.22;0.30;;;10.50;99.90;;;;;;5009906;28;20026;-79
2021/05/04 12:46:05;;;;;;;2.20;0.28;;;10.50;99.90;;;;;;5009966;28;20057;-78
2021/05/04 12:48:32;;;;;;;2.50;0.30;;;10.60;99.90;;;;;;5012377;28;20393;-79
2021/05/04 12:51:04;;;;;;;4.63;0.28;;;10.60;99.90;;;;;;5026821;28;20069;-79
2021/05/04 12:53:38;;;;;;;1.63;0.20;;;10.70;99.90;;;;;;5009584;28;20040;-79
2021/05/04 12:56:06;;;;;;;1.38;0.20;;;10.70;99.90;;;;;;5045181;28;20369;-79
2021/05/04 12:58:33;;;;;;;2.58;0.28;;;10.70;99.90;;;;;;5046431;28;20026;-79
2021/05/04 13:01:11;;;;;;;2.08;0.20;;;10.70;99.90;;;;;;5012403;28;20111;-79
2021/05/04 13:03:52;;;;;;;2.63;0.20;;;11.00;99.90;;;;;;5011197;28;20519;-79
2021/05/04 13:06:22;;;;;;;1.80;0.20;;;11.00;99.90;;;;;;5005149;28;20041;-80